createdAt,value
2022-09-15T00:00:29.865Z,72.24
2022-09-15T00:01:30.077Z,71.53
2022-09-15T00:02:30.357Z,71.94
2022-09-15T00:03:30.395Z,72.24
2022-09-15T00:04:30.567Z,71.53
2022-09-15T00:05:30.738Z,71.84
2022-09-15T00:06:30.887Z,72.64
2022-09-15T00:07:31.065Z,72.44
2022-09-15T00:08:31.226Z,72.38
2022-09-15T00:09:31.385Z,72.58
2022-09-15T00:10:31.546Z,73.38
2022-09-15T00:11:31.736Z,72.38
2022-09-15T00:12:31.887Z,72.98
2022-09-15T00:13:32.060Z,73.08
2022-09-15T00:14:32.208Z,73.58
2022-09-15T00:15:32.409Z,73.58
2022-09-15T00:16:32.612Z,73.18
2022-09-15T00:17:32.763Z,72.78
2022-09-15T00:18:32.922Z,73.49
2022-09-15T00:19:33.085Z,73.49
2022-09-15T00:20:33.238Z,73.49
2022-09-15T00:21:33.403Z,72.98
2022-09-15T00:22:33.575Z,72.68
2022-09-15T00:23:33.736Z,72.68
2022-09-15T00:24:33.895Z,73.08
2022-09-15T00:25:34.055Z,72.68
2022-09-15T00:26:34.221Z,72.98
2022-09-15T00:27:34.385Z,72.88
2022-09-15T00:28:34.545Z,72.07
2022-09-15T00:29:34.706Z,72.78
2022-09-15T00:30:34.920Z,73.08
2022-09-15T00:31:35.046Z,73.49
2022-09-15T00:32:35.215Z,72.88
2022-09-15T00:33:35.376Z,72.98
2022-09-15T00:34:35.535Z,73.08
2022-09-15T00:35:35.696Z,74.19
2022-09-15T00:36:35.867Z,73.79
2022-09-15T00:37:36.028Z,73.49
2022-09-15T00:38:36.189Z,72.98
2022-09-15T00:39:36.382Z,73.38
2022-09-15T00:40:36.537Z,73.58
2022-09-15T00:41:36.747Z,73.02
2022-09-15T00:42:36.927Z,72.91
2022-09-15T00:43:37.086Z,73.32
2022-09-15T00:44:37.247Z,73.52
2022-09-15T00:45:37.472Z,72.91
2022-09-15T00:46:37.586Z,73.02
2022-09-15T00:47:37.754Z,72.91
2022-09-15T00:48:37.909Z,73.42
2022-09-15T00:49:38.105Z,73.52
2022-09-15T00:50:38.264Z,73.72
2022-09-15T00:51:38.487Z,73.93
2022-09-15T00:52:38.636Z,74.22
2022-09-15T00:53:38.835Z,73.11
2022-09-15T00:54:38.996Z,73.02
2022-09-15T00:55:39.156Z,72.81
2022-09-15T00:56:39.336Z,72.81
2022-09-15T00:57:39.503Z,73.32
2022-09-15T00:58:39.658Z,73.02
2022-09-15T00:59:39.816Z,73.22
2022-09-15T01:00:39.976Z,72.81
2022-09-15T01:01:40.243Z,73.62
2022-09-15T01:02:40.385Z,73.02
2022-09-15T01:03:40.506Z,73.46
2022-09-15T01:04:40.667Z,73.46
2022-09-15T01:05:40.864Z,72.95
2022-09-15T01:06:41.026Z,73.66
2022-09-15T01:07:41.196Z,73.35
2022-09-15T01:08:41.396Z,73.15
2022-09-15T01:09:41.546Z,73.55
2022-09-15T01:10:41.708Z,73.05
2022-09-15T01:11:41.915Z,72.85
2022-09-15T01:12:42.078Z,74.06
2022-09-15T01:13:42.266Z,73.46
2022-09-15T01:14:42.446Z,74.37
2022-09-15T01:15:42.648Z,73.66
2022-09-15T01:16:42.858Z,73.66
2022-09-15T01:17:42.996Z,73.46
2022-09-15T01:18:43.156Z,73.28
2022-09-15T01:19:43.319Z,73.69
2022-09-15T01:20:43.479Z,73.59
2022-09-15T01:21:43.657Z,73.39
2022-09-15T01:22:43.816Z,73.49
2022-09-15T01:23:43.985Z,73.99
2022-09-15T01:24:44.147Z,73.99
2022-09-15T01:25:44.307Z,74.90
2022-09-15T01:26:44.486Z,74.80
2022-09-15T01:27:44.647Z,73.59
2022-09-15T01:28:44.807Z,74.30
2022-09-15T01:29:44.966Z,74.70
2022-09-15T01:30:45.136Z,75.31
2022-09-15T01:31:45.381Z,74.90
2022-09-15T01:32:45.475Z,74.70
2022-09-15T01:33:45.634Z,74.70
2022-09-15T01:34:45.796Z,75.01
2022-09-15T01:35:45.977Z,75.01
2022-09-15T01:36:46.138Z,75.01
2022-09-15T01:37:46.327Z,74.19
2022-09-15T01:38:46.486Z,75.01
2022-09-15T01:39:46.740Z,74.60
2022-09-15T01:40:46.875Z,74.90
2022-09-15T01:41:47.037Z,74.90
2022-09-15T01:42:47.193Z,74.90
2022-09-15T01:43:47.407Z,75.21
2022-09-15T01:44:47.566Z,75.10
2022-09-15T01:45:47.794Z,74.30
2022-09-15T01:46:47.895Z,74.40
2022-09-15T01:47:48.056Z,74.10
2022-09-15T01:48:48.217Z,74.80
2022-09-15T01:49:48.377Z,74.30
2022-09-15T01:50:48.553Z,74.90
2022-09-15T01:51:48.707Z,74.40
2022-09-15T01:52:48.866Z,74.70
2022-09-15T01:53:49.024Z,74.90
2022-09-15T01:54:49.194Z,74.80
2022-09-15T01:55:49.390Z,74.60
2022-09-15T01:56:49.547Z,74.40
2022-09-15T01:57:49.747Z,74.30
2022-09-15T01:58:49.906Z,73.99
2022-09-15T01:59:50.086Z,74.30
2022-09-15T02:00:50.300Z,74.10
2022-09-15T02:01:50.458Z,74.40
2022-09-15T02:02:50.587Z,74.10
2022-09-15T02:03:50.755Z,74.10
2022-09-15T02:04:50.928Z,73.99
2022-09-15T02:05:51.088Z,73.90
2022-09-15T02:06:51.245Z,73.99
2022-09-15T02:07:51.437Z,74.10
2022-09-15T02:08:51.690Z,74.60
2022-09-15T02:09:51.796Z,74.50
2022-09-15T02:10:51.956Z,74.50
2022-09-15T02:11:52.131Z,74.80
2022-09-15T02:12:52.289Z,74.30
2022-09-15T02:13:52.513Z,74.30
2022-09-15T02:14:52.640Z,74.50
2022-09-15T02:15:52.800Z,74.60
2022-09-15T02:16:52.997Z,74.80
2022-09-15T02:17:53.137Z,74.70
2022-09-15T02:18:53.297Z,74.19
2022-09-15T02:19:53.507Z,74.60
2022-09-15T02:20:53.668Z,74.80
2022-09-15T02:21:53.872Z,74.40
2022-09-15T02:22:54.016Z,74.60
2022-09-15T02:23:54.222Z,74.80
2022-09-15T02:24:54.396Z,74.90
2022-09-15T02:25:54.557Z,75.10
2022-09-15T02:26:54.717Z,75.21
2022-09-15T02:27:54.886Z,75.10
2022-09-15T02:28:55.037Z,75.01
2022-09-15T02:29:55.236Z,74.80
2022-09-15T02:30:55.406Z,75.10
2022-09-15T02:31:55.631Z,75.10
2022-09-15T02:32:55.739Z,74.80
2022-09-15T02:33:55.916Z,75.01
2022-09-15T02:34:56.077Z,74.80
2022-09-15T02:35:56.237Z,74.50
2022-09-15T02:36:56.399Z,74.19
2022-09-15T02:37:56.607Z,74.10
2022-09-15T02:38:56.747Z,74.06
2022-09-15T02:39:56.991Z,73.75
2022-09-15T02:40:57.067Z,74.16
2022-09-15T02:41:57.259Z,73.86
2022-09-15T02:42:57.448Z,73.66
2022-09-15T02:43:57.632Z,73.75
2022-09-15T02:44:57.805Z,74.26
2022-09-15T02:45:57.975Z,74.26
2022-09-15T02:46:58.107Z,73.96
2022-09-15T02:47:58.266Z,73.86
2022-09-15T02:48:58.427Z,73.62
2022-09-15T02:49:58.617Z,73.72
2022-09-15T02:50:58.757Z,73.42
2022-09-15T02:51:58.917Z,73.42
2022-09-15T02:52:59.109Z,73.22
2022-09-15T02:53:59.255Z,73.11
2022-09-15T02:54:59.436Z,73.42
2022-09-15T02:55:59.587Z,73.52
2022-09-15T02:56:59.757Z,73.52
2022-09-15T02:57:59.921Z,72.71
2022-09-15T02:59:00.111Z,73.46
2022-09-15T03:00:00.298Z,73.35
2022-09-15T03:01:00.533Z,73.25
2022-09-15T03:02:00.653Z,72.95
2022-09-15T03:03:00.798Z,73.15
2022-09-15T03:04:00.957Z,73.05
2022-09-15T03:05:01.145Z,73.05
2022-09-15T03:06:01.297Z,72.75
2022-09-15T03:07:01.497Z,72.75
2022-09-15T03:08:01.658Z,72.64
2022-09-15T03:09:01.857Z,73.46
2022-09-15T03:10:02.037Z,72.64
2022-09-15T03:11:02.198Z,72.78
2022-09-15T03:12:02.350Z,72.88
2022-09-15T03:13:02.546Z,72.68
2022-09-15T03:14:02.704Z,73.08
2022-09-15T03:15:02.921Z,73.49
2022-09-15T03:16:03.159Z,72.88
2022-09-15T03:17:03.260Z,72.88
2022-09-15T03:18:03.418Z,73.08
2022-09-15T03:19:03.607Z,72.88
2022-09-15T03:20:03.778Z,72.99
2022-09-15T03:21:03.937Z,72.72
2022-09-15T03:22:04.099Z,73.02
2022-09-15T03:23:04.257Z,72.92
2022-09-15T03:24:04.425Z,73.02
2022-09-15T03:25:04.598Z,73.32
2022-09-15T03:26:04.758Z,73.63
2022-09-15T03:27:04.949Z,73.43
2022-09-15T03:28:05.107Z,73.32
2022-09-15T03:29:05.308Z,73.32
2022-09-15T03:30:05.489Z,73.15
2022-09-15T03:31:05.785Z,73.46
2022-09-15T03:32:05.837Z,73.66
2022-09-15T03:33:06.028Z,73.46
2022-09-15T03:34:06.189Z,73.66
2022-09-15T03:35:06.397Z,74.16
2022-09-15T03:36:06.557Z,73.46
2022-09-15T03:37:06.718Z,73.66
2022-09-15T03:38:06.895Z,73.56
2022-09-15T03:39:07.038Z,74.30
2022-09-15T03:40:07.253Z,73.69
2022-09-15T03:41:07.365Z,74.00
2022-09-15T03:42:07.517Z,74.00
2022-09-15T03:43:07.722Z,74.00
2022-09-15T03:44:07.876Z,73.69
2022-09-15T03:45:08.058Z,73.69
2022-09-15T03:46:08.341Z,74.10
2022-09-15T03:47:08.423Z,74.30
2022-09-15T03:48:08.557Z,74.20
2022-09-15T03:49:08.718Z,74.00
2022-09-15T03:50:08.897Z,74.20
2022-09-15T03:51:09.059Z,74.60
2022-09-15T03:52:09.217Z,74.20
2022-09-15T03:53:09.387Z,74.33
2022-09-15T03:54:09.549Z,74.74
2022-09-15T03:55:09.728Z,74.95
2022-09-15T03:56:09.907Z,75.15
2022-09-15T03:57:10.068Z,74.74
2022-09-15T03:58:10.227Z,74.13
2022-09-15T03:59:10.437Z,75.04
2022-09-15T04:00:10.607Z,75.45
2022-09-15T04:01:10.893Z,75.15
2022-09-15T04:02:10.967Z,75.25
2022-09-15T04:03:11.117Z,75.35
2022-09-15T04:04:11.287Z,75.35
2022-09-15T04:05:11.455Z,75.25
2022-09-15T04:06:11.617Z,75.35
2022-09-15T04:07:11.777Z,75.25
2022-09-15T04:08:11.929Z,75.45
2022-09-15T04:09:12.137Z,74.64
2022-09-15T04:10:12.306Z,75.25
2022-09-15T04:11:12.468Z,75.85
2022-09-15T04:12:12.626Z,75.04
2022-09-15T04:13:12.786Z,76.16
2022-09-15T04:14:12.957Z,75.99
2022-09-15T04:15:13.119Z,76.40
2022-09-15T04:16:13.325Z,75.69
2022-09-15T04:17:13.475Z,75.99
2022-09-15T04:18:13.615Z,75.28
2022-09-15T04:19:13.827Z,75.38
2022-09-15T04:20:13.994Z,76.09
2022-09-15T04:21:14.169Z,75.59
2022-09-15T04:22:17.705Z,75.59
2022-09-15T04:23:14.531Z,75.99
2022-09-15T04:24:14.735Z,76.20
2022-09-15T04:25:14.877Z,75.89
2022-09-15T04:26:15.055Z,76.09
2022-09-15T04:27:15.227Z,76.09
2022-09-15T04:28:15.408Z,75.89
2022-09-15T04:29:15.609Z,76.29
2022-09-15T04:30:15.747Z,76.40
2022-09-15T04:31:16.009Z,75.59
2022-09-15T04:32:16.109Z,75.69
2022-09-15T04:33:16.288Z,75.89
2022-09-15T04:34:16.507Z,76.09
2022-09-15T04:35:16.657Z,76.20
2022-09-15T04:36:16.839Z,76.40
2022-09-15T04:37:17.037Z,77.21
2022-09-15T04:38:17.213Z,76.90
2022-09-15T04:39:17.387Z,76.70
2022-09-15T04:40:17.630Z,76.80
2022-09-15T04:41:17.701Z,77.01
2022-09-15T04:42:17.887Z,76.20
2022-09-15T04:43:18.080Z,76.40
2022-09-15T04:44:18.277Z,76.40
2022-09-15T04:45:18.457Z,76.90
2022-09-15T04:46:18.751Z,77.01
2022-09-15T04:47:18.826Z,77.01
2022-09-15T04:48:18.998Z,77.21
2022-09-15T04:49:19.187Z,76.60
2022-09-15T04:50:19.327Z,76.50
2022-09-15T04:51:19.520Z,76.80
2022-09-15T04:52:19.708Z,76.60
2022-09-15T04:53:19.909Z,76.70
2022-09-15T04:54:20.098Z,76.50
2022-09-15T04:55:20.240Z,76.29
2022-09-15T04:56:20.429Z,76.40
2022-09-15T04:57:20.607Z,76.60
2022-09-15T04:58:20.787Z,76.50
2022-09-15T04:59:20.990Z,76.50
2022-09-15T05:00:21.117Z,76.50
2022-09-15T05:01:21.377Z,75.79
2022-09-15T05:02:21.526Z,76.46
2022-09-15T05:03:21.688Z,76.46
2022-09-15T05:04:21.889Z,77.28
2022-09-15T05:05:22.027Z,76.87
2022-09-15T05:06:22.195Z,76.77
2022-09-15T05:07:22.354Z,76.67
2022-09-15T05:08:22.526Z,76.36
2022-09-15T05:09:22.705Z,76.56
2022-09-15T05:10:22.864Z,76.26
2022-09-15T05:11:23.037Z,75.62
2022-09-15T05:12:23.187Z,75.42
2022-09-15T05:13:23.348Z,75.52
2022-09-15T05:14:23.537Z,75.42
2022-09-15T05:15:23.697Z,75.11
2022-09-15T05:16:23.905Z,75.52
2022-09-15T05:17:26.706Z,75.42
2022-09-15T05:18:24.220Z,75.38
2022-09-15T05:19:24.415Z,75.48
2022-09-15T05:20:24.577Z,75.28
2022-09-15T05:21:24.765Z,75.38
2022-09-15T05:22:24.917Z,75.28
2022-09-15T05:23:25.098Z,75.28
2022-09-15T05:24:25.297Z,75.28
2022-09-15T05:25:25.478Z,75.38
2022-09-15T05:26:25.657Z,75.48
2022-09-15T05:27:25.817Z,75.38
2022-09-15T05:28:26.015Z,75.24
2022-09-15T05:29:26.186Z,75.14
2022-09-15T05:30:44.434Z,75.24
2022-09-15T05:31:27.543Z,74.84
2022-09-15T05:32:26.668Z,75.14
2022-09-15T05:33:26.867Z,74.94
2022-09-15T05:34:27.037Z,74.94
2022-09-15T05:35:27.207Z,74.80
2022-09-15T05:36:27.388Z,74.50
2022-09-15T05:37:27.567Z,74.40
2022-09-15T05:38:27.758Z,73.99
2022-09-15T05:39:27.908Z,73.96
2022-09-15T05:40:28.235Z,74.06
2022-09-15T05:41:28.247Z,73.75
2022-09-15T05:42:28.431Z,73.75
2022-09-15T05:43:28.617Z,73.55
2022-09-15T05:44:28.768Z,73.35
2022-09-15T05:45:28.951Z,73.25
2022-09-15T05:46:29.382Z,73.46
2022-09-15T05:47:29.298Z,73.11
2022-09-15T05:48:29.496Z,73.02
2022-09-15T05:49:29.668Z,73.02
2022-09-15T05:50:29.857Z,72.71
2022-09-15T05:51:30.083Z,72.81
2022-09-15T05:52:30.202Z,72.71
2022-09-15T05:53:30.397Z,72.61
2022-09-15T05:54:30.548Z,72.51
2022-09-15T05:55:30.731Z,72.48
2022-09-15T05:56:30.921Z,72.48
2022-09-15T05:57:31.106Z,72.07
2022-09-15T05:58:31.298Z,71.84
2022-09-15T05:59:31.447Z,71.13
2022-09-15T06:00:31.628Z,71.10
2022-09-15T06:01:31.976Z,71.10
2022-09-15T06:02:32.094Z,70.79
2022-09-15T06:03:32.207Z,70.56
2022-09-15T06:04:32.321Z,69.95
2022-09-15T06:05:32.529Z,70.26
2022-09-15T06:06:32.674Z,69.95
2022-09-15T06:07:32.870Z,69.65
2022-09-15T06:08:33.049Z,69.55
2022-09-15T06:09:33.219Z,69.85
2022-09-15T06:10:33.406Z,69.52
2022-09-15T06:11:33.586Z,69.62
2022-09-15T06:12:33.766Z,69.12
2022-09-15T06:13:33.957Z,68.81
2022-09-15T06:14:34.107Z,68.88
2022-09-15T06:15:34.308Z,68.18
2022-09-15T06:16:34.559Z,68.78
2022-09-15T06:17:34.638Z,68.58
2022-09-15T06:18:34.877Z,67.97
2022-09-15T06:19:35.008Z,67.47
2022-09-15T06:20:35.198Z,67.27
2022-09-15T06:21:35.360Z,67.64
2022-09-15T06:22:35.521Z,67.44
2022-09-15T06:23:35.721Z,67.21
2022-09-15T06:24:35.869Z,67.00
2022-09-15T06:25:36.048Z,66.40
2022-09-15T06:26:36.235Z,66.17
2022-09-15T06:27:36.422Z,65.77
2022-09-15T06:28:36.628Z,65.33
2022-09-15T06:29:36.769Z,65.13
2022-09-15T06:30:36.958Z,64.63
2022-09-15T06:31:37.180Z,64.93
2022-09-15T06:32:37.329Z,64.83
2022-09-15T06:33:37.527Z,64.40
2022-09-15T06:34:37.669Z,64.20
2022-09-15T06:35:37.849Z,64.50
2022-09-15T06:36:38.031Z,64.00
2022-09-15T06:37:38.232Z,63.87
2022-09-15T06:38:38.419Z,63.56
2022-09-15T06:39:38.557Z,62.76
2022-09-15T06:40:38.743Z,62.86
2022-09-15T06:42:00.884Z,63.06
2022-09-15T06:42:40.091Z,62.63
2022-09-15T06:43:39.253Z,62.83
2022-09-15T06:44:39.432Z,63.23
2022-09-15T06:45:40.597Z,62.20
2022-09-15T06:46:39.799Z,62.10
2022-09-15T06:47:39.940Z,61.80
2022-09-15T06:48:40.155Z,61.90
2022-09-15T06:49:40.294Z,61.80
2022-09-15T06:50:40.478Z,61.87
2022-09-15T06:51:40.649Z,61.36
2022-09-15T06:52:40.830Z,61.67
2022-09-15T06:53:41.033Z,61.54
2022-09-15T06:54:41.181Z,60.74
2022-09-15T06:55:41.320Z,60.44
2022-09-15T06:56:41.518Z,60.24
2022-09-15T06:57:41.680Z,60.03
2022-09-15T06:58:41.987Z,59.83
2022-09-15T06:59:42.055Z,60.14
2022-09-15T07:00:42.240Z,60.33
2022-09-15T07:01:42.431Z,60.44
2022-09-15T07:02:42.726Z,60.41
2022-09-15T07:03:42.922Z,60.11
2022-09-15T07:04:42.961Z,60.01
2022-09-15T07:05:43.171Z,60.41
2022-09-15T07:06:43.303Z,60.51
2022-09-15T07:07:43.491Z,59.91
2022-09-15T07:08:43.702Z,59.31
2022-09-15T07:09:48.322Z,59.50
2022-09-15T07:10:45.054Z,59.70
2022-09-15T07:11:44.231Z,59.81
2022-09-15T07:12:44.422Z,60.01
2022-09-15T07:13:44.644Z,60.41
2022-09-15T07:14:44.761Z,60.31
2022-09-15T07:15:44.943Z,59.81
2022-09-15T07:16:45.209Z,59.91
2022-09-15T07:17:45.286Z,59.50
2022-09-15T07:18:45.482Z,59.41
2022-09-15T07:19:45.651Z,59.50
2022-09-15T07:20:45.835Z,59.31
2022-09-15T07:21:45.992Z,60.21
2022-09-15T07:22:46.172Z,59.58
2022-09-15T07:23:46.363Z,59.48
2022-09-15T07:24:46.514Z,59.48
2022-09-15T07:25:46.691Z,59.58
2022-09-15T07:26:46.878Z,59.28
2022-09-15T07:27:47.073Z,58.98
2022-09-15T07:28:47.242Z,58.78
2022-09-15T07:29:47.403Z,58.98
2022-09-15T07:30:47.593Z,58.98
2022-09-15T07:31:47.795Z,58.78
2022-09-15T07:32:47.963Z,59.18
2022-09-15T07:33:48.210Z,59.28
2022-09-15T07:34:48.322Z,58.85
2022-09-15T07:35:48.502Z,59.15
2022-09-15T07:36:48.664Z,59.55
2022-09-15T07:37:48.807Z,58.92
2022-09-15T07:38:49.014Z,58.32
2022-09-15T07:39:49.198Z,58.22
2022-09-15T07:40:49.370Z,57.82
2022-09-15T07:41:49.545Z,57.82
2022-09-15T07:42:49.734Z,57.82
2022-09-15T07:43:49.943Z,58.12
2022-09-15T07:44:50.083Z,57.72
2022-09-15T07:45:50.333Z,57.62
2022-09-15T07:46:50.462Z,57.59
2022-09-15T07:47:50.634Z,57.79
2022-09-15T07:48:50.846Z,57.50
2022-09-15T07:49:50.985Z,57.59
2022-09-15T07:50:51.185Z,57.69
2022-09-15T07:51:51.328Z,58.17
2022-09-15T07:52:51.484Z,57.17
2022-09-15T07:53:51.739Z,56.46
2022-09-15T07:54:51.812Z,56.57
2022-09-15T07:55:51.978Z,56.54
2022-09-15T07:56:52.155Z,56.84
2022-09-15T07:57:52.325Z,56.44
2022-09-15T07:58:52.512Z,55.32
2022-09-15T07:59:52.653Z,56.01
2022-09-15T08:00:52.837Z,55.02
2022-09-15T08:01:53.058Z,55.09
2022-09-15T08:02:53.157Z,54.69
2022-09-15T08:03:53.420Z,55.79
2022-09-15T08:04:53.496Z,54.86
2022-09-15T08:05:53.665Z,53.86
2022-09-15T08:06:53.846Z,53.86
2022-09-15T08:07:54.006Z,54.36
2022-09-15T08:08:59.987Z,53.77
2022-09-15T08:09:55.356Z,53.54
2022-09-15T08:10:54.538Z,53.64
2022-09-15T08:11:54.687Z,52.94
2022-09-15T08:12:54.881Z,53.54
2022-09-15T08:13:55.066Z,53.02
2022-09-15T08:14:55.224Z,54.01
2022-09-15T08:15:55.397Z,52.00
2022-09-15T08:16:55.618Z,52.00
2022-09-15T08:17:55.738Z,51.29
2022-09-15T08:18:55.917Z,52.07
2022-09-15T08:19:56.068Z,51.27
2022-09-15T08:20:56.245Z,51.07
2022-09-15T08:21:56.408Z,51.07
2022-09-15T08:22:56.591Z,51.37
2022-09-15T08:23:56.751Z,51.54
2022-09-15T08:24:57.012Z,51.12
2022-09-15T08:25:57.096Z,49.98
2022-09-15T08:26:57.306Z,49.38
2022-09-15T08:27:57.456Z,49.29
2022-09-15T08:28:57.628Z,49.01
2022-09-15T08:29:58.003Z,49.43
2022-09-15T08:30:57.999Z,49.93
2022-09-15T08:31:58.150Z,50.23
2022-09-15T08:32:58.328Z,50.25
2022-09-15T08:33:58.518Z,51.15
2022-09-15T08:34:58.673Z,50.35
2022-09-15T08:35:58.862Z,51.75
2022-09-15T08:36:59.049Z,51.05
2022-09-15T08:37:59.247Z,51.57
2022-09-15T08:38:59.430Z,51.57
2022-09-15T08:39:59.681Z,50.87
2022-09-15T08:40:59.789Z,51.00
2022-09-15T08:41:59.965Z,51.40
2022-09-15T08:43:00.194Z,50.92
2022-09-15T08:44:00.332Z,51.32
2022-09-15T08:45:00.554Z,51.65
2022-09-15T08:46:00.709Z,51.75
2022-09-15T08:47:00.851Z,52.64
2022-09-15T08:48:01.011Z,52.87
2022-09-15T08:49:03.168Z,52.87
2022-09-15T08:50:01.331Z,52.94
2022-09-15T08:51:01.501Z,52.55
2022-09-15T08:52:01.670Z,53.04
2022-09-15T08:53:01.841Z,53.44
2022-09-15T08:54:01.993Z,53.24
2022-09-15T08:55:02.191Z,53.31
2022-09-15T08:56:02.346Z,52.62
2022-09-15T08:57:02.531Z,53.11
2022-09-15T08:58:02.740Z,52.32
2022-09-15T08:59:02.897Z,52.25
2022-09-15T09:00:03.062Z,52.64
2022-09-15T09:01:03.242Z,52.74
2022-09-15T09:02:03.466Z,52.76
2022-09-15T09:03:03.660Z,52.76
2022-09-15T09:04:03.743Z,52.67
2022-09-15T09:05:03.922Z,52.47
2022-09-15T09:06:04.093Z,52.97
2022-09-15T09:07:04.272Z,52.87
2022-09-15T09:08:04.483Z,52.76
2022-09-15T09:09:04.635Z,53.47
2022-09-15T09:10:04.803Z,52.44
2022-09-15T09:11:04.962Z,53.34
2022-09-15T09:12:05.132Z,53.41
2022-09-15T09:13:05.330Z,52.42
2022-09-15T09:14:05.453Z,52.62
2022-09-15T09:15:05.630Z,52.29
2022-09-15T09:16:05.829Z,51.20
2022-09-15T09:17:05.943Z,51.79
2022-09-15T09:18:06.114Z,51.50
2022-09-15T09:19:06.287Z,51.97
2022-09-15T09:20:06.435Z,51.47
2022-09-15T09:21:06.608Z,51.07
2022-09-15T09:22:06.764Z,50.05
2022-09-15T09:23:06.948Z,50.55
2022-09-15T09:24:07.125Z,49.85
2022-09-15T09:25:25.785Z,50.33
2022-09-15T09:26:10.565Z,49.63
2022-09-15T09:27:07.623Z,50.31
2022-09-15T09:28:07.815Z,50.20
2022-09-15T09:29:07.955Z,48.59
2022-09-15T09:30:08.133Z,47.99
2022-09-15T09:31:08.527Z,47.99
2022-09-15T09:32:08.503Z,48.37
2022-09-15T09:33:08.656Z,47.97
2022-09-15T09:34:08.827Z,47.67
2022-09-15T09:35:09.000Z,47.45
2022-09-15T09:36:09.176Z,47.65
2022-09-15T09:37:09.367Z,47.03
2022-09-15T09:38:09.536Z,46.93
2022-09-15T09:39:09.717Z,47.31
2022-09-15T09:40:09.923Z,47.28
2022-09-15T09:41:10.079Z,46.27
2022-09-15T09:42:10.764Z,46.07
2022-09-15T09:43:10.429Z,45.83
2022-09-15T09:44:10.617Z,44.72
2022-09-15T09:45:10.798Z,44.50
2022-09-15T09:46:11.017Z,43.51
2022-09-15T09:47:11.177Z,43.17
2022-09-15T09:48:11.322Z,42.16
2022-09-15T09:49:11.498Z,41.63
2022-09-15T09:50:11.668Z,41.00
2022-09-15T09:51:11.849Z,40.98
2022-09-15T09:52:12.043Z,39.89
2022-09-15T09:53:12.180Z,39.48
2022-09-15T09:54:12.369Z,38.51
2022-09-15T09:55:12.527Z,39.15
2022-09-15T09:56:12.743Z,39.86
2022-09-15T09:57:12.870Z,40.69
2022-09-15T09:58:13.040Z,41.39
2022-09-15T09:59:13.219Z,41.39
2022-09-15T10:00:13.373Z,41.31
2022-09-15T10:01:13.630Z,42.43
2022-09-15T10:02:13.740Z,42.92
2022-09-15T10:03:13.889Z,43.24
2022-09-15T10:04:14.053Z,42.96
2022-09-15T10:05:14.242Z,43.06
2022-09-15T10:06:14.412Z,43.06
2022-09-15T10:07:14.571Z,43.95
2022-09-15T10:08:14.761Z,42.96
2022-09-15T10:09:14.945Z,42.86
2022-09-15T10:10:15.091Z,42.86
2022-09-15T10:11:15.272Z,42.96
2022-09-15T10:12:15.501Z,42.66
2022-09-15T10:13:15.602Z,42.27
2022-09-15T10:14:15.787Z,41.97
2022-09-15T10:15:15.970Z,42.36
2022-09-15T10:16:16.177Z,41.89
2022-09-15T10:17:16.319Z,41.79
2022-09-15T10:18:16.493Z,42.01
2022-09-15T10:19:16.683Z,42.90
2022-09-15T10:20:16.895Z,43.99
2022-09-15T10:21:17.068Z,42.92
2022-09-15T10:22:17.215Z,43.22
2022-09-15T10:23:17.388Z,43.91
2022-09-15T10:24:18.251Z,43.74
2022-09-15T10:25:17.744Z,43.74
2022-09-15T10:26:17.992Z,44.55
2022-09-15T10:27:18.111Z,44.85
2022-09-15T10:28:18.285Z,46.34
2022-09-15T10:29:18.466Z,45.25
2022-09-15T10:30:18.656Z,46.24
2022-09-15T10:31:18.901Z,45.15
2022-09-15T10:32:21.756Z,44.55
2022-09-15T10:33:20.155Z,45.05
2022-09-15T10:34:19.316Z,45.25
2022-09-15T10:35:19.517Z,45.32
2022-09-15T10:36:19.725Z,45.23
2022-09-15T10:37:19.846Z,44.33
2022-09-15T10:38:20.020Z,45.00
2022-09-15T10:39:20.176Z,45.20
2022-09-15T10:40:20.425Z,43.70
2022-09-15T10:41:20.606Z,43.00
2022-09-15T10:42:20.701Z,42.38
2022-09-15T10:43:20.874Z,42.09
2022-09-15T10:44:21.028Z,42.09
2022-09-15T10:45:21.190Z,41.08
2022-09-15T10:46:21.402Z,41.18
2022-09-15T10:47:21.547Z,40.58
2022-09-15T10:48:21.727Z,41.08
2022-09-15T10:49:21.878Z,41.47
2022-09-15T10:50:22.087Z,40.98
2022-09-15T10:51:22.204Z,41.08
2022-09-15T10:52:22.418Z,41.10
2022-09-15T10:53:22.549Z,41.89
2022-09-15T10:54:22.718Z,41.89
2022-09-15T10:55:42.195Z,41.60
2022-09-15T10:56:24.058Z,40.50
2022-09-15T10:57:23.293Z,40.23
2022-09-15T10:58:23.410Z,39.43
2022-09-15T10:59:23.609Z,39.65
2022-09-15T11:00:23.810Z,40.25
2022-09-15T11:01:24.037Z,39.85
2022-09-15T11:02:24.172Z,40.47
2022-09-15T11:03:24.290Z,40.47
2022-09-15T11:04:24.497Z,40.86
2022-09-15T11:05:24.673Z,41.06
2022-09-15T11:06:24.831Z,40.86
2022-09-15T11:07:24.990Z,41.06
2022-09-15T11:08:25.192Z,41.55
2022-09-15T11:09:25.340Z,42.15
2022-09-15T11:10:25.550Z,41.85
2022-09-15T11:11:25.718Z,42.74
2022-09-15T11:12:29.113Z,42.35
2022-09-15T11:13:26.031Z,40.88
2022-09-15T11:14:26.204Z,41.08
2022-09-15T11:15:26.383Z,42.27
2022-09-15T11:16:26.590Z,42.27
2022-09-15T11:17:26.713Z,41.77
2022-09-15T11:18:26.889Z,41.17
2022-09-15T11:19:27.061Z,40.58
2022-09-15T11:20:27.233Z,41.08
2022-09-15T11:21:27.373Z,40.68
2022-09-15T11:22:27.563Z,40.78
2022-09-15T11:23:27.742Z,40.98
2022-09-15T11:24:27.945Z,41.58
2022-09-15T11:25:28.142Z,41.97
2022-09-15T11:26:28.366Z,41.60
2022-09-15T11:27:28.472Z,40.90
2022-09-15T11:28:28.654Z,42.01
2022-09-15T11:29:28.841Z,42.11
2022-09-15T11:30:29.044Z,42.80
2022-09-15T11:31:29.207Z,42.53
2022-09-15T11:32:29.344Z,41.83
2022-09-15T11:33:29.545Z,42.03
2022-09-15T11:34:29.741Z,42.55
2022-09-15T11:35:29.876Z,43.02
2022-09-15T11:36:30.056Z,43.32
2022-09-15T11:37:30.225Z,43.01
2022-09-15T11:38:30.380Z,43.18
2022-09-15T11:39:30.545Z,41.99
2022-09-15T11:40:30.770Z,42.39
2022-09-15T11:41:30.893Z,42.17
2022-09-15T11:42:31.065Z,41.38
2022-09-15T11:43:31.239Z,41.58
2022-09-15T11:44:31.411Z,42.45
2022-09-15T11:45:31.603Z,41.16
2022-09-15T11:46:31.809Z,40.47
2022-09-15T11:47:31.920Z,41.36
2022-09-15T11:48:32.126Z,41.16
2022-09-15T11:49:32.279Z,41.36
2022-09-15T11:50:32.528Z,41.85
2022-09-15T11:51:32.657Z,42.05
2022-09-15T11:52:32.817Z,41.95
2022-09-15T11:53:32.994Z,41.85
2022-09-15T11:54:33.185Z,41.47
2022-09-15T11:55:33.379Z,41.47
2022-09-15T11:56:33.497Z,41.60
2022-09-15T11:57:33.692Z,41.89
2022-09-15T11:58:33.860Z,42.79
2022-09-15T11:59:34.030Z,42.79
2022-09-15T12:00:34.258Z,42.19
2022-09-15T12:01:34.914Z,42.88
2022-09-15T12:02:34.621Z,42.91
2022-09-15T12:03:34.785Z,42.71
2022-09-15T12:04:34.942Z,42.61
2022-09-15T12:05:35.131Z,41.34
2022-09-15T12:06:35.309Z,41.83
2022-09-15T12:07:35.509Z,41.93
2022-09-15T12:08:35.703Z,41.93
2022-09-15T12:09:35.870Z,40.74
2022-09-15T12:10:36.061Z,41.66
2022-09-15T12:11:36.221Z,41.75
2022-09-15T12:12:36.670Z,41.55
2022-09-15T12:13:36.565Z,41.16
2022-09-15T12:14:36.717Z,41.46
2022-09-15T12:15:36.927Z,42.33
2022-09-15T12:16:37.087Z,41.34
2022-09-15T12:17:37.230Z,42.23
2022-09-15T12:18:41.043Z,40.74
2022-09-15T12:19:38.598Z,42.01
2022-09-15T12:20:37.771Z,41.61
2022-09-15T12:21:37.921Z,41.71
2022-09-15T12:22:38.108Z,41.63
2022-09-15T12:23:38.281Z,41.04
2022-09-15T12:24:38.462Z,40.96
2022-09-15T12:25:38.662Z,41.46
2022-09-15T12:26:38.846Z,42.17
2022-09-15T12:27:39.033Z,42.37
2022-09-15T12:28:39.184Z,43.07
2022-09-15T12:29:41.927Z,42.37
2022-09-15T12:30:39.579Z,42.07
2022-09-15T12:31:39.760Z,41.77
2022-09-15T12:32:39.892Z,41.87
2022-09-15T12:33:40.043Z,42.17
2022-09-15T12:34:40.262Z,41.97
2022-09-15T12:35:40.421Z,42.57
2022-09-15T12:36:40.593Z,42.79
2022-09-15T12:37:40.765Z,42.99
2022-09-15T12:38:40.964Z,42.59
2022-09-15T12:39:41.106Z,42.69
2022-09-15T12:40:41.332Z,42.19
2022-09-15T12:41:41.469Z,43.19
2022-09-15T12:42:41.635Z,43.19
2022-09-15T12:43:41.833Z,43.19
2022-09-15T12:44:42.002Z,43.68
2022-09-15T12:45:42.184Z,43.49
2022-09-15T12:46:42.510Z,44.08
2022-09-15T12:47:42.530Z,43.46
2022-09-15T12:48:46.761Z,42.97
2022-09-15T12:49:43.845Z,42.77
2022-09-15T12:50:43.069Z,42.89
2022-09-15T12:51:43.197Z,43.27
2022-09-15T12:52:43.386Z,42.69
2022-09-15T12:53:45.704Z,43.29
2022-09-15T12:54:43.761Z,43.88